logo
Search for airport 
image banner adimage banner adimage banner ad
image banner ad

LSZO - Luzern-Beromunster

Located in Luzern, Switzerland

ICAO - LSZO, IATA -

Data provided by Airmate  

General information

Coordinates: N47°11'24" E8°12'17"
Elevation is 2146 feet MSL.
Magnetic variation is 2.638° East
View others Airports in Lucerne

Operational data

Special qualification required
Current time UTC:
Current local time:
Weather at : LSME - Emmen ( 13 km )
METAR: LSME 140150Z AUTO 22005KT 9999NDV NCD 09/08 Q1025 RMK
View NOTAMs / SUP AIP / TFR affecting this airport [VIEW]
Communications frequencies: [VIEW]

Runways:

RWY identifierQFULength (ft)Width (ft)SurfaceLDA (ft)
15157°167398GRASS
33 GLD159198GRASS
33337°167398GRASS
15G157°00UNK
33G337°00UNK

Airport contact information

Address: Luzern Switzerland

Other aviation service providers

Aviation club (not for profit)

Aecs-Aero-Club Der Schweiz, Zentralsekretariat

Aecs-Aero-Club Der Schweiz, Zentralsekretariat
info@aeroclub.ch+414137501-01

Flubag Flugbetriebs Ag

Flubag Flugbetriebs Ag
flubag@flubag.ch+41419301866

Aero-Club Der Schweiz, Zentralsekretariat

Aero-Club Der Schweiz, Zentralsekretariat
info@aeroclub.ch+414137501-01

Schweizer Segelflugverband

Schweizer Segelflugverband
xmaeder@bluewin.ch+41323315150
+41793017028

Satellite view of LSZO